createdAt,value
2022-08-26T00:00:51.277Z,12.10
2022-08-26T00:04:33.703Z,12.00
2022-08-26T00:08:15.781Z,11.90
2022-08-26T00:11:57.570Z,11.90
2022-08-26T00:15:39.418Z,11.80
2022-08-26T00:19:21.663Z,11.80
2022-08-26T00:23:04.072Z,11.70
2022-08-26T00:26:46.225Z,11.70
2022-08-26T00:30:29.378Z,11.60
2022-08-26T00:34:13.129Z,11.60
2022-08-26T00:37:56.082Z,11.60
2022-08-26T00:41:38.664Z,11.50
2022-08-26T00:45:21.125Z,11.40
2022-08-26T00:49:12.402Z,11.40
2022-08-26T00:52:54.406Z,11.30
2022-08-26T00:56:38.568Z,11.30
2022-08-26T01:00:23.362Z,11.20
2022-08-26T01:04:05.241Z,11.10
2022-08-26T01:07:47.121Z,11.10
2022-08-26T01:11:32.068Z,11.00
2022-08-26T01:15:18.277Z,11.00
2022-08-26T01:19:03.867Z,10.90
2022-08-26T01:23:12.107Z,10.80
2022-08-26T01:26:58.262Z,10.80
2022-08-26T01:30:40.805Z,10.80
2022-08-26T01:34:35.038Z,10.80
2022-08-26T01:38:17.023Z,10.70
2022-08-26T01:41:58.943Z,10.60
2022-08-26T01:45:45.205Z,10.60
2022-08-26T01:49:27.071Z,10.60
2022-08-26T01:53:10.732Z,10.50
2022-08-26T01:56:53.303Z,10.50
2022-08-26T02:00:35.405Z,10.50
2022-08-26T02:04:33.672Z,10.40
2022-08-26T02:08:15.601Z,10.40
2022-08-26T02:12:06.868Z,10.30
2022-08-26T02:15:52.390Z,10.30
2022-08-26T02:19:35.627Z,10.20
2022-08-26T02:23:18.062Z,10.20
2022-08-26T02:26:59.895Z,10.20
2022-08-26T02:30:42.908Z,10.20
2022-08-26T02:34:31.221Z,10.10
2022-08-26T02:38:13.224Z,10.10
2022-08-26T02:41:55.201Z,10.00
2022-08-26T02:45:37.136Z,9.90
2022-08-26T02:49:19.633Z,9.90
2022-08-26T02:53:03.013Z,9.80
2022-08-26T02:56:44.930Z,9.70
2022-08-26T03:00:26.837Z,9.70
2022-08-26T03:04:11.615Z,9.60
2022-08-26T03:07:54.016Z,9.50
2022-08-26T03:11:36.725Z,9.50
2022-08-26T03:15:18.640Z,9.50
2022-08-26T03:19:01.131Z,9.50
2022-08-26T03:22:43.065Z,9.40
2022-08-26T03:26:24.953Z,9.40
2022-08-26T03:30:26.173Z,9.40
2022-08-26T03:34:08.418Z,9.30
2022-08-26T03:37:50.190Z,9.30
2022-08-26T03:41:33.853Z,9.30
2022-08-26T03:45:16.687Z,9.20
2022-08-26T03:48:58.588Z,9.20
2022-08-26T03:52:43.870Z,9.10
2022-08-26T03:56:27.129Z,9.10
2022-08-26T04:00:12.315Z,9.10
2022-08-26T04:04:00.510Z,9.10
2022-08-26T04:07:42.935Z,9.00
2022-08-26T04:11:28.461Z,9.00
2022-08-26T04:15:13.625Z,9.00
2022-08-26T04:18:57.158Z,9.00
2022-08-26T04:22:38.965Z,9.00
2022-08-26T04:26:22.633Z,8.90
2022-08-26T04:30:05.697Z,8.90
2022-08-26T04:33:50.807Z,8.80
2022-08-26T04:37:33.521Z,8.90
2022-08-26T04:41:16.960Z,8.80
2022-08-26T04:44:59.034Z,8.90
2022-08-26T04:48:41.330Z,8.90
2022-08-26T04:52:24.083Z,8.90
2022-08-26T04:56:08.611Z,8.90
2022-08-26T04:59:51.970Z,8.80
2022-08-26T05:03:33.873Z,8.80
2022-08-26T05:07:17.697Z,8.70
2022-08-26T05:10:59.554Z,8.60
2022-08-26T05:14:42.088Z,8.60
2022-08-26T05:18:27.545Z,8.60
2022-08-26T05:22:09.340Z,8.60
2022-08-26T05:25:55.815Z,8.60
2022-08-26T05:29:40.765Z,8.60
2022-08-26T05:33:22.606Z,8.70
2022-08-26T05:37:05.503Z,8.70
2022-08-26T05:40:49.498Z,8.70
2022-08-26T05:44:53.761Z,8.80
2022-08-26T05:48:36.821Z,8.80
2022-08-26T05:52:19.265Z,8.80
2022-08-26T05:56:01.182Z,8.80
2022-08-26T05:59:42.982Z,8.90
2022-08-26T06:03:24.981Z,9.00
2022-08-26T06:07:07.321Z,9.00
2022-08-26T06:10:54.984Z,9.10
2022-08-26T06:14:36.838Z,9.20
2022-08-26T06:18:21.089Z,9.30
2022-08-26T06:22:23.700Z,9.30
2022-08-26T06:26:06.093Z,9.50
2022-08-26T06:29:47.936Z,9.60
2022-08-26T06:33:31.222Z,9.70
2022-08-26T06:37:13.131Z,9.80
2022-08-26T06:40:55.022Z,10.00
2022-08-26T06:44:36.834Z,10.10
2022-08-26T06:48:20.263Z,10.30
2022-08-26T06:52:03.529Z,10.40
2022-08-26T06:55:46.093Z,10.60
2022-08-26T06:59:28.315Z,10.70
2022-08-26T07:03:10.447Z,10.90
2022-08-26T07:06:53.607Z,11.10
2022-08-26T07:10:35.996Z,11.20
2022-08-26T07:14:19.304Z,11.40
2022-08-26T07:18:03.371Z,11.60
2022-08-26T07:21:45.151Z,11.80
2022-08-26T07:25:26.914Z,11.90
2022-08-26T07:29:08.778Z,12.20
2022-08-26T07:32:50.561Z,12.70
2022-08-26T07:36:32.484Z,13.50
2022-08-26T07:40:14.824Z,14.20
2022-08-26T07:43:58.067Z,15.00
2022-08-26T07:47:40.658Z,15.80
2022-08-26T07:51:22.906Z,16.50
2022-08-26T07:55:05.372Z,17.30
2022-08-26T07:58:51.337Z,17.90
2022-08-26T08:02:33.777Z,18.70
2022-08-26T08:06:16.387Z,19.50
2022-08-26T08:09:58.198Z,20.30
2022-08-26T08:13:40.117Z,21.10
2022-08-26T08:17:21.967Z,21.80
2022-08-26T08:21:21.109Z,22.50
2022-08-26T08:25:06.361Z,23.10
2022-08-26T08:28:50.305Z,23.70
2022-08-26T08:32:32.188Z,23.90
2022-08-26T08:36:18.546Z,23.80
2022-08-26T08:40:03.463Z,24.40
2022-08-26T08:43:46.438Z,25.20
2022-08-26T08:47:33.850Z,25.90
2022-08-26T08:51:31.728Z,26.80
2022-08-26T08:55:16.090Z,27.80
2022-08-26T08:59:19.580Z,28.70
2022-08-26T09:03:09.733Z,29.50
2022-08-26T09:06:54.066Z,30.30
2022-08-26T09:10:51.117Z,30.60
2022-08-26T09:14:32.953Z,30.60
2022-08-26T09:18:45.966Z,30.90
2022-08-26T09:22:32.992Z,31.50
2022-08-26T09:26:17.560Z,32.10
2022-08-26T09:30:00.478Z,32.40
2022-08-26T09:33:42.395Z,32.10
2022-08-26T09:37:41.942Z,32.70
2022-08-26T09:41:31.722Z,33.60
2022-08-26T09:45:13.879Z,34.50
2022-08-26T09:48:56.290Z,35.40
2022-08-26T09:52:40.430Z,36.30
2022-08-26T09:56:25.838Z,37.10
2022-08-26T10:00:38.610Z,37.90
2022-08-26T10:04:22.834Z,38.60
2022-08-26T10:08:26.148Z,38.60
2022-08-26T10:12:18.772Z,38.70
2022-08-26T10:16:00.619Z,39.30
2022-08-26T10:19:56.855Z,38.50
2022-08-26T10:23:42.662Z,37.80
2022-08-26T10:27:33.967Z,37.90
2022-08-26T10:31:27.604Z,38.60
2022-08-26T10:35:11.160Z,39.40
2022-08-26T10:38:52.965Z,40.00
2022-08-26T10:42:37.584Z,40.00
2022-08-26T10:46:22.444Z,39.60
2022-08-26T10:50:09.033Z,39.20
2022-08-26T10:53:58.162Z,38.70
2022-08-26T10:57:47.359Z,37.80
2022-08-26T11:01:43.264Z,36.30
2022-08-26T11:05:25.325Z,35.00
2022-08-26T11:09:08.729Z,35.50
2022-08-26T11:12:54.504Z,36.90
2022-08-26T11:16:44.306Z,36.40
2022-08-26T11:20:33.983Z,34.50
2022-08-26T11:24:38.282Z,34.10
2022-08-26T11:28:35.497Z,34.30
2022-08-26T11:32:35.822Z,34.70
2022-08-26T11:36:45.778Z,34.50
2022-08-26T11:40:32.547Z,34.40
2022-08-26T11:44:22.799Z,34.50
2022-08-26T11:48:29.687Z,34.80
2022-08-26T11:52:22.039Z,35.10
2022-08-26T11:56:26.558Z,34.30
2022-08-26T12:00:16.889Z,33.70
2022-08-26T12:04:08.184Z,33.10
2022-08-26T12:07:50.999Z,32.80
2022-08-26T12:11:36.035Z,32.20
2022-08-26T12:15:19.801Z,31.20
2022-08-26T12:19:21.976Z,30.60
2022-08-26T12:23:06.934Z,30.00
2022-08-26T12:26:48.801Z,29.70
2022-08-26T12:30:31.122Z,29.20
2022-08-26T12:34:18.451Z,29.10
2022-08-26T12:38:00.729Z,29.20
2022-08-26T12:41:48.343Z,29.40
2022-08-26T12:45:37.515Z,29.50
2022-08-26T12:49:19.431Z,29.10
2022-08-26T12:53:04.243Z,28.90
2022-08-26T12:56:46.040Z,28.50
2022-08-26T13:00:33.622Z,27.80
2022-08-26T13:04:38.467Z,27.20
2022-08-26T13:08:27.720Z,26.50
2022-08-26T13:12:11.370Z,26.00
2022-08-26T13:15:54.357Z,25.60
2022-08-26T13:19:36.165Z,25.50
2022-08-26T13:23:19.172Z,25.30
2022-08-26T13:27:01.152Z,25.20
2022-08-26T13:30:45.246Z,25.50
2022-08-26T13:34:27.100Z,26.30
2022-08-26T13:38:18.557Z,27.20
2022-08-26T13:42:14.870Z,27.90
2022-08-26T13:45:56.765Z,28.20
2022-08-26T13:49:39.326Z,28.40
2022-08-26T13:53:21.301Z,28.60
2022-08-26T13:57:03.220Z,28.30
2022-08-26T14:00:45.129Z,28.10
2022-08-26T14:04:28.806Z,28.30
2022-08-26T14:08:10.823Z,28.40
2022-08-26T14:11:54.875Z,27.90
2022-08-26T14:15:37.763Z,27.80
2022-08-26T14:19:19.645Z,27.90
2022-08-26T14:23:14.464Z,27.70
2022-08-26T14:26:56.434Z,27.70
2022-08-26T14:30:40.203Z,27.70
2022-08-26T14:34:22.019Z,27.30
2022-08-26T14:38:03.918Z,27.20
2022-08-26T14:41:54.457Z,27.10
2022-08-26T14:45:37.846Z,27.00
2022-08-26T14:49:20.009Z,26.60
2022-08-26T14:53:20.203Z,26.50
2022-08-26T14:57:05.494Z,26.30
2022-08-26T15:00:47.254Z,25.90
2022-08-26T15:04:29.202Z,25.40
2022-08-26T15:08:11.211Z,25.10
2022-08-26T15:11:53.248Z,25.30
2022-08-26T15:15:35.091Z,25.80
2022-08-26T15:19:17.393Z,27.20
2022-08-26T15:23:03.319Z,28.40
2022-08-26T15:26:48.301Z,29.50
2022-08-26T15:30:30.110Z,29.90
2022-08-26T15:34:16.449Z,30.00
2022-08-26T15:37:58.893Z,30.30
2022-08-26T15:41:41.072Z,30.60
2022-08-26T15:45:25.850Z,32.40
2022-08-26T15:49:08.178Z,34.70
2022-08-26T15:53:01.340Z,37.20
2022-08-26T15:56:43.627Z,39.10
2022-08-26T16:00:26.433Z,40.00
2022-08-26T16:04:08.255Z,39.60
2022-08-26T16:07:50.006Z,40.40
2022-08-26T16:11:31.823Z,40.40
2022-08-26T16:15:13.775Z,39.80
2022-08-26T16:18:55.570Z,40.50
2022-08-26T16:22:37.393Z,41.90
2022-08-26T16:26:21.457Z,42.90
2022-08-26T16:30:07.014Z,42.70
2022-08-26T16:33:48.843Z,42.70
2022-08-26T16:37:30.719Z,42.10
2022-08-26T16:41:12.495Z,40.80
2022-08-26T16:44:54.295Z,39.70
2022-08-26T16:48:37.634Z,39.30
2022-08-26T16:52:19.479Z,39.30
2022-08-26T16:56:01.226Z,39.90
2022-08-26T16:59:43.109Z,40.70
2022-08-26T17:03:24.875Z,41.30
2022-08-26T17:07:06.708Z,41.70
2022-08-26T17:10:49.248Z,41.70
2022-08-26T17:14:36.965Z,40.10
2022-08-26T17:18:18.737Z,39.20
2022-08-26T17:22:00.561Z,38.30
2022-08-26T17:25:42.460Z,37.80
2022-08-26T17:29:24.273Z,38.00
2022-08-26T17:33:10.917Z,38.20
2022-08-26T17:36:52.955Z,38.30
2022-08-26T17:40:34.873Z,38.10
2022-08-26T17:44:16.723Z,36.80
2022-08-26T17:47:58.551Z,35.00
2022-08-26T17:51:41.009Z,33.00
2022-08-26T17:55:22.776Z,31.20
2022-08-26T17:59:04.896Z,30.00
2022-08-26T18:02:46.811Z,29.10
2022-08-26T18:06:28.833Z,28.10
2022-08-26T18:10:13.332Z,27.10
2022-08-26T18:13:55.428Z,26.50
2022-08-26T18:17:39.153Z,26.00
2022-08-26T18:21:23.412Z,25.70
2022-08-26T18:25:06.017Z,25.40
2022-08-26T18:28:47.961Z,24.90
2022-08-26T18:32:29.723Z,24.50
2022-08-26T18:36:16.525Z,24.20
2022-08-26T18:39:59.505Z,23.90
2022-08-26T18:43:41.407Z,23.70
2022-08-26T18:47:23.244Z,23.60
2022-08-26T18:51:06.841Z,23.40
2022-08-26T18:54:51.441Z,23.20
2022-08-26T18:58:33.247Z,23.00
2022-08-26T19:02:15.196Z,22.70
2022-08-26T19:05:57.070Z,22.40
2022-08-26T19:09:38.838Z,22.20
2022-08-26T19:13:21.210Z,22.00
2022-08-26T19:17:03.112Z,21.80
2022-08-26T19:20:46.746Z,21.70
2022-08-26T19:24:28.714Z,21.50
2022-08-26T19:28:10.521Z,21.40
2022-08-26T19:31:52.317Z,21.30
2022-08-26T19:35:34.238Z,21.20
2022-08-26T19:39:16.058Z,21.10
2022-08-26T19:42:57.913Z,21.00
2022-08-26T19:46:39.936Z,20.90
2022-08-26T19:50:22.148Z,20.90
2022-08-26T19:54:04.325Z,20.80
2022-08-26T19:57:46.250Z,20.70
2022-08-26T20:01:28.087Z,20.70
2022-08-26T20:05:10.743Z,20.60
2022-08-26T20:08:53.923Z,20.50
2022-08-26T20:12:38.350Z,20.50
2022-08-26T20:16:20.208Z,20.40
2022-08-26T20:20:28.412Z,20.30
2022-08-26T20:24:17.054Z,20.20
2022-08-26T20:27:59.278Z,20.20
2022-08-26T20:31:41.500Z,20.10
2022-08-26T20:35:23.972Z,20.00
2022-08-26T20:39:06.292Z,19.90
2022-08-26T20:42:48.123Z,19.80
2022-08-26T20:46:29.974Z,19.70
2022-08-26T20:50:11.849Z,19.60
2022-08-26T20:53:53.735Z,19.50
2022-08-26T20:57:35.536Z,19.60
2022-08-26T21:01:30.648Z,19.60
2022-08-26T21:05:12.540Z,19.60
2022-08-26T21:08:54.563Z,19.50
2022-08-26T21:12:36.745Z,19.40
2022-08-26T21:16:19.622Z,19.40
2022-08-26T21:20:01.551Z,19.30
2022-08-26T21:23:43.357Z,19.20
2022-08-26T21:27:26.597Z,19.20
2022-08-26T21:31:13.786Z,19.10
2022-08-26T21:34:56.912Z,19.00
2022-08-26T21:38:39.089Z,19.00
2022-08-26T21:42:20.865Z,18.90
2022-08-26T21:46:11.320Z,18.90
2022-08-26T21:49:53.369Z,18.90
2022-08-26T21:53:35.565Z,18.80
2022-08-26T21:57:17.615Z,18.70
2022-08-26T22:00:59.396Z,18.70
2022-08-26T22:04:43.655Z,18.60
2022-08-26T22:08:30.195Z,18.60
2022-08-26T22:12:12.183Z,18.50
2022-08-26T22:15:54.254Z,18.40
2022-08-26T22:19:45.794Z,18.30
2022-08-26T22:23:28.431Z,18.20
2022-08-26T22:27:11.894Z,18.20
2022-08-26T22:30:53.694Z,18.10
2022-08-26T22:34:35.474Z,18.00
2022-08-26T22:38:17.395Z,18.00
2022-08-26T22:41:59.155Z,17.90
2022-08-26T22:45:42.680Z,17.90
2022-08-26T22:49:24.616Z,17.80
2022-08-26T22:53:06.370Z,17.80
2022-08-26T22:56:48.611Z,17.70
2022-08-26T23:00:32.086Z,17.60
2022-08-26T23:04:14.414Z,17.50
2022-08-26T23:07:56.773Z,17.40
2022-08-26T23:11:42.175Z,17.30
2022-08-26T23:15:24.269Z,17.20
2022-08-26T23:19:06.040Z,17.00
2022-08-26T23:22:48.452Z,16.90
2022-08-26T23:26:30.385Z,16.80
2022-08-26T23:30:15.510Z,16.60
2022-08-26T23:34:15.690Z,16.50
2022-08-26T23:37:59.108Z,16.40
2022-08-26T23:41:41.618Z,16.20
2022-08-26T23:45:23.581Z,16.00
2022-08-26T23:49:05.425Z,15.90
2022-08-26T23:53:05.688Z,15.70
2022-08-26T23:56:47.451Z,15.60
